Accident
Last updated: 20 October 2014
Status:Offizieller Zwischenbericht
Datum:Sonntag 30 Oktober 2005
Zeit:22:05
Flugzeugtyp:Silhouette image of generic L410 model; specific model in this crash may look slightly different
Let L-410UVP-E19A
Fluggesellschaft:Trade Air
Kennzeichen: 9A-BTA
Werknummer: 912538
Baujahr: 1991
Betriebsstunden:7185
Triebwerk: 2 Walter M-601E
Besatzung:Todesopfer: 2 / Insassen: 2
Fluggäste:Todesopfer: 1 / Insassen: 1
Gesamt:Todesopfer: 3 / Insassen: 3
Sachschaden: Zerstört
Konsequenzen: Written off (damaged beyond repair)
Unfallort:Bergamo (   Italien) show on map
Flugphase: Anfangssteigflug (ICL)
Betriebsart:Frachtflug
Flug von:Bergamo-Orio Al Serio Airport (BGY/LIME), Italien
Flug nach:Zagreb-Pleso Airport (ZAG/LDZA), Kroatien
Flugnummer: 729
Unfallbericht:
Trade Air Flight 729 departed Bergamo Airport for a night-time cargo flight to Zagreb. The aircraft crashed and broke up soon after takeoff. Weather was poor with a limited visibility of 200-300 m due to fog.
Weather around the time of the accident (21:05 UTC) was:
LIME 302050Z 13005KT 0300 R28/0550D FG BKN001 11/10 Q1023=
LIME 302120Z 14004KT 0200 R28/0350N FG BKN001 11/10 Q1023=
(20:50 UTC: Wind 130 degrees at 5 kts, visibility 300m, runway visual range on runway 28 is 550 m decreasing in fog, 5-7 oktas cloud at 100ft, temperature 11°C dewpoint 10°C, QNH 1023hPa
21:20 UTC: Wind 140 degrees at 4 kts, visibility 200m, runway visual range on runway 28 is 350 m in fog, 5-7 oktas cloud at 100ft, temperature 11°C, dewpoint 10°C, QNH 1023hPa)


Informationsquelle:
» ANSV
» Trade Air


Fotos

photo of Let L-410UVP-E19A 9A-BTA
photo of Let L-410UVP-E19A OK-WDO
OK-WDO was sold as 9A-BTA in January 1999.
Add your photo of this accident or aircraft
 

Map
This map shows the airport of departure and the intended destination of the flight. The line between the airports does not display the exact flight path.
Distance from Bergamo-Orio Al Serio Airport to Zagreb-Pleso Airport as the crow flies is 491 km (307 miles).

This information is not presented as the Flight Safety Foundation or the Aviation Safety Network’s opinion as to the cause of the accident. It is preliminary and is based on the facts as they are known at this time.
languages: English Français Nederlands Deutsch Espanol

Share
Share